This is the latest recevied weather packets stored in our database for station/object WA4TPR. If no packets are shown the sender has not sent any weather packets the latest 10 day(s).
| Time | Temp. | Humidity | Pressure | Rain* | Wind** | Luminosity | Snow |
|---|---|---|---|---|---|---|---|
| 1777588100 | 29.44° C | 62% | 1013.7 hPa | 0 mm | - | 116 W/m² | - |
| 1777587796 | 29.44° C | 62% | 1013.5 hPa | 0 mm | - | 100 W/m² | - |
| 1777587495 | 29.44° C | 61% | 1013.7 hPa | 0 mm | - | 211 W/m² | - |
| 1777587186 | 29.44° C | 61% | 1013.6 hPa | 0 mm | - | 117 W/m² | - |
| 1777586882 | 29.44° C | 61% | 1013.7 hPa | 0 mm | - | 93 W/m² | - |
| 1777586578 | 30° C | 60% | 1013.9 hPa | 0 mm | - | 93 W/m² | - |
| 1777586273 | 30° C | 59% | 1013.6 hPa | 0 mm | - | 299 W/m² | - |
| 1777585971 | 30.56° C | 59% | 1013.7 hPa | 0 mm | - | 307 W/m² | - |
| 1777585666 | 30.56° C | 59% | 1013.7 hPa | 0 mm | - | 364 W/m² | - |
| 1777585361 | 31.11° C | 57% | 1013.6 hPa | 0 mm | - | 395 W/m² | - |
| 1777585056 | 30.56° C | 58% | 1013.7 hPa | 0 mm | - | 438 W/m² | - |
| 1777584752 | 30.56° C | 58% | 1013.6 hPa | 0 mm | - | 441 W/m² | - |
| 1777584451 | 30° C | 58% | 1013.8 hPa | 0 mm | - | 158 W/m² | - |
| 1777584147 | 30.56° C | 58% | 1013.6 hPa | 0 mm | - | 136 W/m² | - |
| 1777583846 | 31.11° C | 56% | 1013.8 hPa | 0 mm | - | 426 W/m² | - |
| 1777583542 | 30.56° C | 58% | 1013.7 hPa | 0 mm | - | 519 W/m² | - |
| 1777583241 | 30.56° C | 56% | 1013.6 hPa | 0 mm | - | 173 W/m² | - |
| 1777582936 | 30.56° C | 55% | 1013.8 hPa | 0 mm | - | 151 W/m² | - |
| 1777582634 | 31.11° C | 56% | 1013.7 hPa | 0 mm | - | 173 W/m² | - |
| 1777582329 | 30.56° C | 58% | 1013.5 hPa | 0 mm | - | 198 W/m² | - |
| 1777582027 | 31.11° C | 56% | 1013.7 hPa | 0 mm | - | 603 W/m² | - |
| 1777581722 | 31.67° C | 54% | 1013.6 hPa | 0 mm | - | 150 W/m² | - |
| 1777581421 | 31.67° C | 50% | 1013.8 hPa | 0 mm | - | 611 W/m² | - |
| 1777581121 | 31.11° C | 54% | 1013.8 hPa | 0 mm | - | 659 W/m² | - |
| 1777580816 | 31.67° C | 53% | 1013.6 hPa | 0 mm | - | 188 W/m² | - |
* Rain latest hour (hover to see other rain measurements)
** Current wind speed in m/s (hover to see current wind gust speed)